createdAt,value
2019-04-03T00:00:35.832Z,4.40
2019-04-03T00:03:02.754Z,3.60
2019-04-03T00:05:31.139Z,4.10
2019-04-03T00:07:58.290Z,4.30
2019-04-03T00:10:26.055Z,4.00
2019-04-03T00:12:52.855Z,3.77
2019-04-03T00:15:20.170Z,3.90
2019-04-03T00:17:46.828Z,4.47
2019-04-03T00:20:13.472Z,4.20
2019-04-03T00:22:40.294Z,4.40
2019-04-03T00:25:08.135Z,4.00
2019-04-03T00:27:34.875Z,4.17
2019-04-03T00:30:03.022Z,4.10
2019-04-03T00:32:29.800Z,4.40
2019-04-03T00:34:56.600Z,3.60
2019-04-03T00:37:23.760Z,4.50
2019-04-03T00:39:53.873Z,4.20
2019-04-03T00:42:24.075Z,4.50
2019-04-03T00:44:49.253Z,4.30
2019-04-03T00:47:15.936Z,5.00
2019-04-03T00:49:42.731Z,4.70
2019-04-03T00:52:09.580Z,4.37
2019-04-03T00:54:36.445Z,4.23
2019-04-03T00:57:03.394Z,4.13
2019-04-03T00:59:30.206Z,4.17
2019-04-03T01:01:57.167Z,4.00
2019-04-03T01:04:24.475Z,3.80
2019-04-03T01:06:51.308Z,4.43
2019-04-03T01:09:18.144Z,4.63
2019-04-03T01:11:45.032Z,3.87
2019-04-03T01:14:11.712Z,4.40
2019-04-03T01:16:38.376Z,4.77
2019-04-03T01:19:06.370Z,4.27
2019-04-03T01:21:33.303Z,3.80
2019-04-03T01:24:00.157Z,4.60
2019-04-03T01:26:26.892Z,4.53
2019-04-03T01:31:35.166Z,4.93
2019-04-03T01:34:01.863Z,5.00
2019-04-03T01:36:28.592Z,5.50
2019-04-03T01:38:55.247Z,5.70
2019-04-03T01:41:21.916Z,5.40
2019-04-03T01:43:48.632Z,6.27
2019-04-03T01:46:15.249Z,5.77
2019-04-03T01:48:42.018Z,5.90
2019-04-03T01:51:08.693Z,5.33
2019-04-03T01:53:35.455Z,5.07
2019-04-03T01:56:04.537Z,6.13
2019-04-03T01:58:30.592Z,5.20
2019-04-03T02:00:57.265Z,5.40
2019-04-03T02:03:24.040Z,5.70
2019-04-03T02:05:50.719Z,5.33
2019-04-03T02:08:17.343Z,5.70
2019-04-03T02:10:44.026Z,5.33
2019-04-03T02:13:10.720Z,5.27
2019-04-03T02:15:37.352Z,6.00
2019-04-03T02:18:04.140Z,5.37
2019-04-03T02:20:30.918Z,5.93
2019-04-03T02:22:59.523Z,5.83
2019-04-03T02:25:26.133Z,5.40
2019-04-03T02:27:53.076Z,5.70
2019-04-03T02:30:19.872Z,5.67
2019-04-03T02:32:46.606Z,6.07
2019-04-03T02:35:13.409Z,6.70
2019-04-03T02:37:40.554Z,5.17
2019-04-03T02:40:07.687Z,5.47
2019-04-03T02:42:34.377Z,5.50
2019-04-03T02:45:01.005Z,5.30
2019-04-03T02:47:27.695Z,5.53
2019-04-03T02:49:54.512Z,5.30
2019-04-03T02:52:24.168Z,5.30
2019-04-03T02:54:50.238Z,5.00
2019-04-03T02:57:17.895Z,5.70
2019-04-03T02:59:45.232Z,6.07
2019-04-03T03:02:13.489Z,6.20
2019-04-03T03:04:40.619Z,6.17
2019-04-03T03:07:07.541Z,6.30
2019-04-03T03:09:35.149Z,5.50
2019-04-03T03:12:02.394Z,6.30
2019-04-03T03:14:29.185Z,6.13
2019-04-03T03:16:57.980Z,5.37
2019-04-03T03:19:24.775Z,6.10
2019-04-03T03:21:55.144Z,5.70
2019-04-03T03:24:22.737Z,6.47
2019-04-03T03:26:50.253Z,5.13
2019-04-03T03:29:23.712Z,5.80
2019-04-03T03:32:06.461Z,5.87
2019-04-03T03:34:15.502Z,6.20
2019-04-03T03:36:42.732Z,5.20
2019-04-03T03:39:10.993Z,5.70
2019-04-03T03:41:38.536Z,6.10
2019-04-03T03:44:09.545Z,6.97
2019-04-03T03:46:34.504Z,5.70
2019-04-03T03:49:01.394Z,6.40
2019-04-03T03:51:31.980Z,5.90
2019-04-03T03:53:59.256Z,5.80
2019-04-03T03:56:30.365Z,6.30
2019-04-03T03:58:56.690Z,6.23
2019-04-03T04:01:23.452Z,6.13
2019-04-03T04:03:50.756Z,5.87
2019-04-03T04:06:18.095Z,6.07
2019-04-03T04:08:45.668Z,5.93
2019-04-03T04:11:12.555Z,6.73
2019-04-03T04:13:39.499Z,5.97
2019-04-03T04:16:06.288Z,6.67
2019-04-03T04:18:33.001Z,6.53
2019-04-03T04:21:01.657Z,6.90
2019-04-03T04:23:31.676Z,5.50
2019-04-03T04:26:01.090Z,7.17
2019-04-03T04:28:27.355Z,6.70
2019-04-03T04:30:54.257Z,6.80
2019-04-03T04:33:21.235Z,6.70
2019-04-03T04:35:47.932Z,7.20
2019-04-03T04:38:14.587Z,6.77
2019-04-03T04:40:41.507Z,6.77
2019-04-03T04:43:08.978Z,7.03
2019-04-03T04:45:35.599Z,6.37
2019-04-03T04:48:02.487Z,6.53
2019-04-03T04:50:29.611Z,7.50
2019-04-03T04:52:58.015Z,7.57
2019-04-03T04:55:24.958Z,7.80
2019-04-03T04:57:51.597Z,7.10
2019-04-03T05:00:18.273Z,7.00
2019-04-03T05:02:44.945Z,7.27
2019-04-03T05:05:11.744Z,7.80
2019-04-03T05:07:38.509Z,7.33
2019-04-03T05:10:05.882Z,6.60
2019-04-03T05:12:33.172Z,7.80
2019-04-03T05:14:59.836Z,8.80
2019-04-03T05:17:27.391Z,8.40
2019-04-03T05:19:54.237Z,8.33
2019-04-03T05:22:21.883Z,8.30
2019-04-03T05:24:49.617Z,10.07
2019-04-03T05:27:16.361Z,8.60
2019-04-03T05:29:43.040Z,8.17
2019-04-03T05:32:11.045Z,7.70
2019-04-03T05:34:39.049Z,8.30
2019-04-03T05:37:06.157Z,9.83
2019-04-03T05:39:32.855Z,8.50
2019-04-03T05:41:59.813Z,8.63
2019-04-03T05:44:27.243Z,8.60
2019-04-03T05:46:54.309Z,8.40
2019-04-03T05:49:21.021Z,8.00
2019-04-03T05:51:47.684Z,8.60
2019-04-03T05:54:14.821Z,8.87
2019-04-03T05:56:42.966Z,11.00
2019-04-03T05:59:10.025Z,9.13
2019-04-03T06:01:36.786Z,8.30
2019-04-03T06:04:03.458Z,6.90
2019-04-03T06:06:30.116Z,7.90
2019-04-03T06:08:57.285Z,7.63
2019-04-03T06:11:24.365Z,7.53
2019-04-03T06:13:51.140Z,7.17
2019-04-03T06:16:17.985Z,7.13
2019-04-03T06:18:47.365Z,6.27
2019-04-03T06:21:15.627Z,6.50
2019-04-03T06:23:41.804Z,6.40
2019-04-03T06:26:08.545Z,6.70
2019-04-03T06:28:35.553Z,6.30
2019-04-03T06:31:02.555Z,6.83
2019-04-03T06:33:31.439Z,6.83
2019-04-03T06:35:57.930Z,7.10
2019-04-03T06:38:25.198Z,6.77
2019-04-03T06:40:52.076Z,7.27
2019-04-03T06:43:18.731Z,7.10
2019-04-03T06:45:45.460Z,7.90
2019-04-03T06:48:12.897Z,8.53
2019-04-03T06:50:40.151Z,7.00
2019-04-03T06:53:07.084Z,7.30
2019-04-03T06:55:35.653Z,7.83
2019-04-03T06:58:02.362Z,7.30
2019-04-03T07:00:29.164Z,8.27
2019-04-03T07:02:55.882Z,8.17
2019-04-03T07:05:22.539Z,6.80
2019-04-03T07:07:49.329Z,7.07
2019-04-03T07:10:25.095Z,8.80
2019-04-03T07:12:46.412Z,6.90
2019-04-03T07:15:13.815Z,6.50
2019-04-03T07:17:40.633Z,6.47
2019-04-03T07:20:14.433Z,6.63
2019-04-03T07:22:36.275Z,5.83
2019-04-03T07:25:05.106Z,6.13
2019-04-03T07:27:34.892Z,5.40
2019-04-03T07:30:01.092Z,5.43
2019-04-03T07:32:29.052Z,5.43
2019-04-03T07:34:55.764Z,5.80
2019-04-03T07:37:22.799Z,6.70
2019-04-03T07:39:50.242Z,6.73
2019-04-03T07:42:18.572Z,5.93
2019-04-03T07:44:45.313Z,5.63
2019-04-03T07:47:12.059Z,11.47
2019-04-03T07:49:39.994Z,6.20
2019-04-03T07:52:07.876Z,5.83
2019-04-03T07:54:34.782Z,5.53
2019-04-03T07:57:02.082Z,5.60
2019-04-03T07:59:29.620Z,6.40
2019-04-03T08:01:56.233Z,6.87
2019-04-03T08:04:25.104Z,6.80
2019-04-03T08:06:51.396Z,6.40
2019-04-03T08:09:18.123Z,6.60
2019-04-03T08:11:44.812Z,5.63
2019-04-03T08:14:11.492Z,6.07
2019-04-03T08:16:38.178Z,7.37
2019-04-03T08:19:08.015Z,7.50
2019-04-03T08:21:33.637Z,6.53
2019-04-03T08:24:00.529Z,6.37
2019-04-03T08:26:27.535Z,7.10
2019-04-03T08:28:54.563Z,6.00
2019-04-03T08:31:21.355Z,6.60
2019-04-03T08:33:48.033Z,6.53
2019-04-03T08:36:23.927Z,6.23
2019-04-03T08:38:44.927Z,6.40
2019-04-03T08:41:12.070Z,5.60
2019-04-03T08:43:38.962Z,7.43
2019-04-03T08:46:05.844Z,6.77
2019-04-03T08:48:34.167Z,5.77
2019-04-03T08:51:03.027Z,5.57
2019-04-03T08:53:29.514Z,5.30
2019-04-03T08:55:56.678Z,5.83
2019-04-03T08:58:25.921Z,5.90
2019-04-03T09:00:52.069Z,6.00
2019-04-03T09:03:19.384Z,5.30
2019-04-03T09:05:46.015Z,5.63
2019-04-03T09:08:12.772Z,6.17
2019-04-03T09:10:39.551Z,5.50
2019-04-03T09:13:16.790Z,5.90
2019-04-03T09:15:35.167Z,5.90
2019-04-03T09:18:01.912Z,5.53
2019-04-03T09:20:28.543Z,5.80
2019-04-03T09:22:55.388Z,6.40
2019-04-03T09:25:22.614Z,5.23
2019-04-03T09:27:49.480Z,5.10
2019-04-03T09:30:16.710Z,5.07
2019-04-03T09:32:43.530Z,5.90
2019-04-03T09:35:10.513Z,5.30
2019-04-03T09:37:38.129Z,5.57
2019-04-03T09:40:07.276Z,5.00
2019-04-03T09:42:33.992Z,4.70
2019-04-03T09:45:00.680Z,4.97
2019-04-03T09:47:27.522Z,4.63
2019-04-03T09:49:54.344Z,4.40
2019-04-03T09:52:23.091Z,3.97
2019-04-03T09:54:49.613Z,4.30
2019-04-03T09:57:16.600Z,4.53
2019-04-03T09:59:43.902Z,3.90
2019-04-03T10:02:10.906Z,4.10
2019-04-03T10:04:37.692Z,4.20
2019-04-03T10:07:04.388Z,4.20
2019-04-03T10:09:31.153Z,4.60
2019-04-03T10:11:59.010Z,4.03
2019-04-03T10:14:27.624Z,5.00
2019-04-03T10:16:54.247Z,3.67
2019-04-03T10:19:21.249Z,4.07
2019-04-03T10:21:47.962Z,3.83
2019-04-03T10:24:15.464Z,3.97
2019-04-03T10:26:42.211Z,4.13
2019-04-03T10:29:09.183Z,3.87
2019-04-03T10:31:36.120Z,4.20
2019-04-03T10:34:04.232Z,4.50
2019-04-03T10:36:31.662Z,4.27
2019-04-03T10:38:58.566Z,4.97
2019-04-03T10:41:28.752Z,4.03
2019-04-03T10:43:54.806Z,4.57
2019-04-03T10:46:21.544Z,3.63
2019-04-03T10:48:48.288Z,3.90
2019-04-03T10:51:15.210Z,3.80
2019-04-03T10:53:42.031Z,4.03
2019-04-03T10:56:30.765Z,4.00
2019-04-03T10:59:09.500Z,3.83
2019-04-03T11:01:26.692Z,4.10
2019-04-03T11:03:53.353Z,3.80
2019-04-03T11:06:20.156Z,4.30
2019-04-03T11:08:47.017Z,3.47
2019-04-03T11:11:13.778Z,4.00
2019-04-03T11:13:40.575Z,3.50
2019-04-03T11:16:07.338Z,3.40
2019-04-03T11:18:34.521Z,3.50
2019-04-03T11:21:01.374Z,3.67
2019-04-03T11:23:38.322Z,3.80
2019-04-03T11:25:56.661Z,3.33
2019-04-03T11:28:23.907Z,3.40
2019-04-03T11:30:53.003Z,3.50
2019-04-03T11:33:20.271Z,3.70
2019-04-03T11:35:49.204Z,3.20
2019-04-03T11:38:26.223Z,3.87
2019-04-03T11:40:45.382Z,3.10
2019-04-03T11:43:12.235Z,3.40
2019-04-03T11:45:39.037Z,3.50
2019-04-03T11:48:05.838Z,3.47
2019-04-03T11:50:34.005Z,3.13
2019-04-03T11:53:02.103Z,3.80
2019-04-03T11:55:29.957Z,3.87
2019-04-03T11:57:58.138Z,3.67
2019-04-03T12:00:36.103Z,3.47
2019-04-03T12:03:03.404Z,3.73
2019-04-03T12:05:30.438Z,4.00
2019-04-03T12:07:57.471Z,4.00
2019-04-03T12:10:26.290Z,3.70
2019-04-03T12:12:53.193Z,3.63
2019-04-03T12:15:21.582Z,3.87
2019-04-03T12:17:48.749Z,4.37
2019-04-03T12:20:16.463Z,3.90
2019-04-03T12:22:43.406Z,3.80
2019-04-03T12:25:10.335Z,3.90
2019-04-03T12:27:37.479Z,4.40
2019-04-03T12:30:08.169Z,3.57
2019-04-03T12:32:38.479Z,4.20
2019-04-03T12:35:07.291Z,3.20
2019-04-03T12:37:34.260Z,3.40
2019-04-03T12:40:01.414Z,3.23
2019-04-03T12:42:28.860Z,3.00
2019-04-03T12:44:55.919Z,2.87
2019-04-03T12:47:26.829Z,4.13
2019-04-03T12:49:51.952Z,3.60
2019-04-03T12:52:19.975Z,3.50
2019-04-03T12:54:48.752Z,3.93
2019-04-03T12:57:15.693Z,3.17
2019-04-03T12:59:42.895Z,3.20
2019-04-03T13:02:09.577Z,2.63
2019-04-03T13:04:36.336Z,2.50
2019-04-03T13:07:05.340Z,2.37
2019-04-03T13:09:31.963Z,2.33
2019-04-03T13:12:00.143Z,2.10
2019-04-03T13:14:27.907Z,1.47
2019-04-03T13:16:56.743Z,1.33
2019-04-03T13:19:25.707Z,1.30
2019-04-03T13:21:52.834Z,1.60
2019-04-03T13:24:19.729Z,2.13
2019-04-03T13:26:46.486Z,2.03
2019-04-03T13:29:13.276Z,1.90
2019-04-03T13:31:40.029Z,1.97
2019-04-03T13:34:08.414Z,2.10
2019-04-03T13:36:35.710Z,2.10
2019-04-03T13:39:05.446Z,2.03
2019-04-03T13:41:34.124Z,1.90
2019-04-03T13:44:01.105Z,1.87
2019-04-03T13:46:28.846Z,1.80
2019-04-03T13:48:56.771Z,1.57
2019-04-03T13:51:26.120Z,1.83
2019-04-03T13:53:53.804Z,2.23
2019-04-03T13:56:23.190Z,2.20
2019-04-03T13:58:52.637Z,2.30
2019-04-03T14:01:19.183Z,2.00
2019-04-03T14:03:49.677Z,2.07
2019-04-03T14:06:15.408Z,2.27
2019-04-03T14:08:45.120Z,2.27
2019-04-03T14:11:12.983Z,2.00
2019-04-03T14:13:42.372Z,2.13
2019-04-03T14:16:18.623Z,1.83
2019-04-03T14:18:39.041Z,1.60
2019-04-03T14:21:06.390Z,1.97
2019-04-03T14:23:35.866Z,2.17
2019-04-03T14:26:07.075Z,1.90
2019-04-03T14:28:34.592Z,1.60
2019-04-03T14:31:00.539Z,1.90
2019-04-03T14:33:27.332Z,2.10
2019-04-03T14:35:54.964Z,2.10
2019-04-03T14:38:22.321Z,2.07
2019-04-03T14:40:49.056Z,2.10
2019-04-03T14:43:15.884Z,2.07
2019-04-03T14:45:44.479Z,2.10
2019-04-03T14:48:11.100Z,2.10
2019-04-03T14:50:39.049Z,2.20
2019-04-03T14:53:07.768Z,2.50
2019-04-03T14:55:45.855Z,2.90
2019-04-03T14:58:03.244Z,5.27
2019-04-03T15:00:31.666Z,3.30
2019-04-03T15:02:59.260Z,2.90
2019-04-03T15:05:26.755Z,3.00
2019-04-03T15:07:54.160Z,3.37
2019-04-03T15:10:20.923Z,3.60
2019-04-03T15:12:47.745Z,3.37
2019-04-03T15:15:16.355Z,3.80
2019-04-03T15:17:43.219Z,3.60
2019-04-03T15:20:11.009Z,4.50
2019-04-03T15:22:39.576Z,3.70
2019-04-03T15:25:07.640Z,3.73
2019-04-03T15:27:34.677Z,3.63
2019-04-03T15:30:01.577Z,3.70
2019-04-03T15:32:28.638Z,4.07
2019-04-03T15:34:55.372Z,3.97
2019-04-03T15:37:22.028Z,3.90
2019-04-03T15:39:55.718Z,6.73
2019-04-03T15:42:18.643Z,5.80
2019-04-03T15:44:45.471Z,4.40
2019-04-03T15:47:12.431Z,4.20
2019-04-03T15:49:39.224Z,4.57
2019-04-03T15:52:06.213Z,3.93
2019-04-03T15:54:34.868Z,3.83
2019-04-03T15:57:01.602Z,4.37
2019-04-03T15:59:29.684Z,5.50
2019-04-03T16:01:57.088Z,4.43
2019-04-03T16:04:26.996Z,6.63
2019-04-03T16:06:54.026Z,4.37
2019-04-03T16:09:20.745Z,3.53
2019-04-03T16:11:47.504Z,3.73
2019-04-03T16:14:15.029Z,5.57
2019-04-03T16:16:42.731Z,6.60
2019-04-03T16:19:11.436Z,6.50
2019-04-03T16:21:38.323Z,5.73
2019-04-03T16:24:11.428Z,5.93
2019-04-03T16:26:35.819Z,5.40
2019-04-03T16:29:06.524Z,5.57
2019-04-03T16:31:31.581Z,6.20
2019-04-03T16:33:59.562Z,5.47
2019-04-03T16:36:26.769Z,5.73
2019-04-03T16:38:53.927Z,6.40
2019-04-03T16:41:21.213Z,6.43
2019-04-03T16:43:49.943Z,7.27
2019-04-03T16:46:16.530Z,7.83
2019-04-03T16:48:43.325Z,6.90
2019-04-03T16:51:11.220Z,6.83
2019-04-03T16:53:38.981Z,6.00
2019-04-03T16:56:06.523Z,6.07
2019-04-03T16:58:33.487Z,6.33
2019-04-03T17:01:00.304Z,5.37
2019-04-03T17:03:28.761Z,6.20
2019-04-03T17:05:55.491Z,6.17
2019-04-03T17:08:25.788Z,6.27
2019-04-03T17:10:50.925Z,6.50
2019-04-03T17:13:20.326Z,6.10
2019-04-03T17:15:46.671Z,5.77
2019-04-03T17:18:16.497Z,6.00
2019-04-03T17:20:42.096Z,5.10
2019-04-03T17:23:10.988Z,6.10
2019-04-03T17:25:45.817Z,6.20
2019-04-03T17:28:09.180Z,5.63
2019-04-03T17:30:36.614Z,5.93
2019-04-03T17:33:03.391Z,6.30
2019-04-03T17:35:30.192Z,6.10
2019-04-03T17:37:58.924Z,8.70
2019-04-03T17:40:25.360Z,9.77
2019-04-03T17:42:52.061Z,7.90
2019-04-03T17:45:18.727Z,7.53
2019-04-03T17:47:45.485Z,6.40
2019-04-03T17:50:32.029Z,6.40
2019-04-03T17:52:58.897Z,7.10
2019-04-03T17:55:25.629Z,7.63
2019-04-03T17:57:52.445Z,8.03
2019-04-03T18:00:21.003Z,8.03
2019-04-03T18:02:48.831Z,7.03
2019-04-03T18:05:16.137Z,7.43
2019-04-03T18:07:43.600Z,7.23
2019-04-03T18:10:12.946Z,7.10
2019-04-03T18:12:39.401Z,7.27
2019-04-03T18:15:07.720Z,6.90
2019-04-03T18:17:34.459Z,6.67
2019-04-03T18:20:01.460Z,7.63
2019-04-03T18:22:28.155Z,8.20
2019-04-03T18:24:54.815Z,8.20
2019-04-03T18:27:22.068Z,7.53
2019-04-03T18:29:48.781Z,7.50
2019-04-03T18:32:16.976Z,7.80
2019-04-03T18:34:43.806Z,7.93
2019-04-03T18:37:10.631Z,8.40
2019-04-03T18:39:41.084Z,10.20
2019-04-03T18:42:18.483Z,10.90
2019-04-03T18:44:45.249Z,9.20
2019-04-03T18:47:12.044Z,8.43
2019-04-03T18:49:39.945Z,8.77
2019-04-03T18:52:08.038Z,8.03
2019-04-03T18:54:35.447Z,7.97
2019-04-03T18:57:02.313Z,8.40
2019-04-03T18:59:29.017Z,7.57
2019-04-03T19:01:55.673Z,8.37
2019-04-03T19:04:22.479Z,8.93
2019-04-03T19:06:49.232Z,10.40
2019-04-03T19:09:16.427Z,9.07
2019-04-03T19:11:43.215Z,8.03
2019-04-03T19:14:09.919Z,3.90
2019-04-03T19:16:44.025Z,1.90
2019-04-03T19:19:08.112Z,1.80
2019-04-03T19:21:35.887Z,1.97
2019-04-03T19:24:02.714Z,2.50
2019-04-03T19:26:30.054Z,1.17
2019-04-03T19:28:58.088Z,1.00
2019-04-03T19:31:24.948Z,0.60
2019-04-03T19:33:51.635Z,1.87
2019-04-03T19:36:20.244Z,3.00
2019-04-03T19:38:46.797Z,0.47
2019-04-03T19:41:13.493Z,0.60
2019-04-03T19:43:40.173Z,0.40
2019-04-03T19:46:06.965Z,0.60
2019-04-03T19:48:35.123Z,0.43
2019-04-03T19:51:03.505Z,0.40
2019-04-03T19:53:30.521Z,0.40
2019-04-03T19:55:58.284Z,0.50
2019-04-03T19:58:28.736Z,0.53
2019-04-03T20:00:55.045Z,0.70
2019-04-03T20:03:21.888Z,0.70
2019-04-03T20:05:50.824Z,0.60
2019-04-03T20:08:18.438Z,0.73
2019-04-03T20:10:45.419Z,0.80
2019-04-03T20:13:12.811Z,0.70
2019-04-03T20:15:40.395Z,1.20
2019-04-03T20:18:07.340Z,0.80
2019-04-03T20:20:34.133Z,0.77
2019-04-03T20:23:02.633Z,0.60
2019-04-03T20:25:29.341Z,0.60
2019-04-03T20:27:57.044Z,0.60
2019-04-03T20:30:24.086Z,0.83
2019-04-03T20:32:50.762Z,0.70
2019-04-03T20:35:18.641Z,0.53
2019-04-03T20:37:45.616Z,0.90
2019-04-03T20:40:12.645Z,1.70
2019-04-03T20:42:41.453Z,1.90
2019-04-03T20:45:08.125Z,2.20
2019-04-03T20:47:34.977Z,1.83
2019-04-03T20:50:01.657Z,1.63
2019-04-03T20:52:28.512Z,1.30
2019-04-03T20:54:55.229Z,0.90
2019-04-03T20:57:22.251Z,1.10
2019-04-03T20:59:58.827Z,1.20
2019-04-03T21:02:17.493Z,1.73
2019-04-03T21:04:46.485Z,0.80
2019-04-03T21:07:13.072Z,0.93
2019-04-03T21:09:39.732Z,1.10
2019-04-03T21:12:06.428Z,0.97
2019-04-03T21:14:33.115Z,1.20
2019-04-03T21:16:59.858Z,1.40
2019-04-03T21:19:26.487Z,1.60
2019-04-03T21:21:53.205Z,1.70
2019-04-03T21:24:19.894Z,1.50
2019-04-03T21:26:46.565Z,1.33
2019-04-03T21:29:14.948Z,1.30
2019-04-03T21:31:41.799Z,1.03
2019-04-03T21:34:08.520Z,1.17
2019-04-03T21:36:38.377Z,1.40
2019-04-03T21:39:05.853Z,1.90
2019-04-03T21:41:32.449Z,2.20
2019-04-03T21:43:59.883Z,1.70
2019-04-03T21:46:28.541Z,1.50
2019-04-03T21:48:55.348Z,1.60
2019-04-03T21:51:21.979Z,1.30
2019-04-03T21:53:49.652Z,1.10
2019-04-03T21:56:17.435Z,1.23
2019-04-03T21:58:44.137Z,0.93
2019-04-03T22:01:15.168Z,1.20
2019-04-03T22:03:42.128Z,1.20
2019-04-03T22:06:08.873Z,1.40
2019-04-03T22:08:35.656Z,1.67
2019-04-03T22:11:04.651Z,1.30
2019-04-03T22:13:30.898Z,2.07
2019-04-03T22:15:58.494Z,1.70
2019-04-03T22:18:25.145Z,1.80
2019-04-03T22:20:51.826Z,1.60
2019-04-03T22:23:18.604Z,1.33
2019-04-03T22:25:45.569Z,1.80
2019-04-03T22:28:13.457Z,1.20
2019-04-03T22:30:40.852Z,1.40
2019-04-03T22:33:07.522Z,1.87
2019-04-03T22:35:34.322Z,1.70
2019-04-03T22:38:00.935Z,1.70
2019-04-03T22:40:27.645Z,2.33
2019-04-03T22:42:54.404Z,1.53
2019-04-03T22:45:21.148Z,2.83
2019-04-03T22:47:47.889Z,3.10
2019-04-03T22:50:14.706Z,2.93
2019-04-03T22:52:41.404Z,3.53
2019-04-03T22:55:08.115Z,3.13
2019-04-03T22:57:34.764Z,3.60
2019-04-03T23:00:01.872Z,3.80
2019-04-03T23:02:29.872Z,3.10
2019-04-03T23:04:56.993Z,3.50
2019-04-03T23:07:23.776Z,4.00
2019-04-03T23:09:50.434Z,3.10
2019-04-03T23:12:17.129Z,3.67
2019-04-03T23:14:43.772Z,3.40
2019-04-03T23:17:11.943Z,3.57
2019-04-03T23:19:39.067Z,3.80
2019-04-03T23:22:05.672Z,3.53
2019-04-03T23:24:32.373Z,5.17
2019-04-03T23:26:59.043Z,3.87
2019-04-03T23:29:25.789Z,4.40
2019-04-03T23:31:52.480Z,3.67
2019-04-03T23:34:19.709Z,3.20
2019-04-03T23:36:46.508Z,3.07
2019-04-03T23:39:13.190Z,3.63
2019-04-03T23:41:39.821Z,3.50
2019-04-03T23:44:06.672Z,3.53
2019-04-03T23:46:33.435Z,3.77
2019-04-03T23:49:00.089Z,4.37
2019-04-03T23:51:27.925Z,3.83
2019-04-03T23:53:54.908Z,3.40
2019-04-03T23:56:21.603Z,3.10
2019-04-03T23:58:48.382Z,3.13
